createdAt,value
2023-01-13T00:00:33.197Z,10.54
2023-01-13T00:02:59.826Z,10.56
2023-01-13T00:05:26.793Z,10.49
2023-01-13T00:07:53.448Z,10.47
2023-01-13T00:10:19.929Z,10.41
2023-01-13T00:12:46.488Z,10.38
2023-01-13T00:15:13.462Z,10.30
2023-01-13T00:17:40.002Z,10.32
2023-01-13T00:20:07.577Z,10.37
2023-01-13T00:22:35.112Z,10.34
2023-01-13T00:25:04.190Z,10.31
2023-01-13T00:27:31.569Z,10.34
2023-01-13T00:29:58.200Z,10.40
2023-01-13T00:32:24.819Z,10.44
2023-01-13T00:34:51.495Z,10.43
2023-01-13T00:37:18.050Z,10.40
2023-01-13T00:39:45.739Z,10.45
2023-01-13T00:42:31.314Z,10.48
2023-01-13T00:44:57.784Z,10.53
2023-01-13T00:47:24.312Z,10.55
2023-01-13T00:49:50.809Z,10.57
2023-01-13T00:52:17.314Z,10.58
2023-01-13T00:54:43.803Z,10.68
2023-01-13T00:57:10.380Z,10.70
2023-01-13T00:59:36.896Z,10.72
2023-01-13T01:02:03.510Z,10.72
2023-01-13T01:04:30.074Z,10.77
2023-01-13T01:06:56.595Z,10.75
2023-01-13T01:09:23.081Z,10.74
2023-01-13T01:11:49.565Z,10.69
2023-01-13T01:14:16.071Z,10.67
2023-01-13T01:16:42.548Z,10.69
2023-01-13T01:19:10.408Z,10.80
2023-01-13T01:21:36.978Z,10.77
2023-01-13T01:24:04.439Z,10.76
2023-01-13T01:26:31.944Z,10.83
2023-01-13T01:28:58.954Z,10.86
2023-01-13T01:31:31.638Z,10.81
2023-01-13T01:33:58.804Z,10.78
2023-01-13T01:36:26.829Z,10.81
2023-01-13T01:38:53.351Z,10.88
2023-01-13T01:41:25.195Z,10.87
2023-01-13T01:44:04.426Z,10.89
2023-01-13T01:46:37.932Z,10.93
2023-01-13T01:49:13.933Z,10.90
2023-01-13T01:51:50.331Z,10.83
2023-01-13T01:54:22.058Z,10.71
2023-01-13T01:56:49.164Z,10.65
2023-01-13T01:59:16.168Z,10.55
2023-01-13T02:01:43.920Z,10.39
2023-01-13T02:04:23.510Z,10.38
2023-01-13T02:06:50.909Z,10.32
2023-01-13T02:09:17.708Z,10.25
2023-01-13T02:12:02.491Z,10.22
2023-01-13T02:14:30.605Z,10.18
2023-01-13T02:17:21.535Z,10.17
2023-01-13T02:20:16.049Z,10.18
2023-01-13T02:23:06.991Z,10.11
2023-01-13T02:26:16.980Z,10.11
2023-01-13T02:29:24.062Z,10.09
2023-01-13T02:31:59.551Z,10.09
2023-01-13T02:35:02.491Z,10.03
2023-01-13T02:37:33.485Z,10.13
2023-01-13T02:40:03.197Z,10.09
2023-01-13T02:42:53.832Z,10.16
2023-01-13T02:45:32.249Z,10.25
2023-01-13T02:48:00.986Z,10.27
2023-01-13T02:50:35.471Z,10.26
2023-01-13T02:53:08.405Z,10.27
2023-01-13T02:55:39.513Z,10.32
2023-01-13T02:58:10.591Z,10.35
2023-01-13T03:00:37.955Z,10.38
2023-01-13T03:03:04.768Z,10.37
2023-01-13T03:05:33.084Z,10.31
2023-01-13T03:08:15.767Z,10.37
2023-01-13T03:11:05.938Z,10.44
2023-01-13T03:14:11.802Z,10.44
2023-01-13T03:16:38.459Z,10.40
2023-01-13T03:19:15.233Z,10.39
2023-01-13T03:22:07.709Z,10.43
2023-01-13T03:24:47.549Z,10.40
2023-01-13T03:27:30.141Z,10.39
2023-01-13T03:30:30.906Z,10.42
2023-01-13T03:33:04.688Z,10.40
2023-01-13T03:35:36.725Z,10.43
2023-01-13T03:38:09.027Z,10.41
2023-01-13T03:40:44.091Z,10.44
2023-01-13T03:43:35.155Z,10.41
2023-01-13T03:46:08.706Z,10.45
2023-01-13T03:48:40.576Z,10.49
2023-01-13T03:51:11.724Z,10.44
2023-01-13T03:53:43.147Z,10.38
2023-01-13T03:56:15.637Z,10.32
2023-01-13T03:58:47.030Z,10.30
2023-01-13T04:01:20.991Z,10.32
2023-01-13T04:04:01.380Z,10.35
2023-01-13T04:06:30.888Z,10.26
2023-01-13T04:09:11.776Z,10.17
2023-01-13T04:11:44.454Z,10.29
2023-01-13T04:14:13.053Z,10.26
2023-01-13T04:16:40.265Z,10.26
2023-01-13T04:19:06.705Z,10.23
2023-01-13T04:21:35.058Z,10.23
2023-01-13T04:24:01.571Z,10.23
2023-01-13T04:26:28.080Z,10.24
2023-01-13T04:28:55.485Z,10.21
2023-01-13T04:31:22.142Z,10.16
2023-01-13T04:33:48.756Z,10.15
2023-01-13T04:36:15.752Z,10.16
2023-01-13T04:38:42.263Z,10.12
2023-01-13T04:41:08.781Z,10.12
2023-01-13T04:43:35.296Z,10.07
2023-01-13T04:46:01.896Z,10.07
2023-01-13T04:48:28.460Z,10.02
2023-01-13T04:50:54.944Z,9.99
2023-01-13T04:53:21.469Z,10.02
2023-01-13T04:55:49.699Z,10.04
2023-01-13T04:58:16.321Z,10.08
2023-01-13T05:00:42.840Z,10.06
2023-01-13T05:03:09.482Z,10.08
2023-01-13T05:05:36.239Z,10.11
2023-01-13T05:08:02.722Z,10.03
2023-01-13T05:10:29.243Z,10.04
2023-01-13T05:13:14.705Z,10.05
2023-01-13T05:16:00.609Z,10.09
2023-01-13T05:18:29.392Z,10.06
2023-01-13T05:20:55.869Z,10.01
2023-01-13T05:23:40.847Z,10.01
2023-01-13T05:26:07.534Z,10.01
2023-01-13T05:28:34.857Z,9.99
2023-01-13T05:31:01.594Z,10.03
2023-01-13T05:33:28.399Z,10.01
2023-01-13T05:35:54.996Z,10.03
2023-01-13T05:38:21.546Z,10.04
2023-01-13T05:41:06.597Z,10.07
2023-01-13T05:43:34.861Z,10.05
2023-01-13T05:46:01.470Z,10.05
2023-01-13T05:48:48.149Z,10.03
2023-01-13T05:51:14.601Z,10.00
2023-01-13T05:53:41.425Z,10.04
2023-01-13T05:56:09.211Z,10.05
2023-01-13T05:58:35.700Z,10.13
2023-01-13T06:01:06.937Z,10.10
2023-01-13T06:03:33.518Z,10.03
2023-01-13T06:06:02.293Z,10.00
2023-01-13T06:08:29.619Z,9.99
2023-01-13T06:10:56.434Z,10.05
2023-01-13T06:13:25.245Z,10.06
2023-01-13T06:15:51.815Z,10.09
2023-01-13T06:18:18.690Z,10.06
2023-01-13T06:20:47.094Z,10.06
2023-01-13T06:23:13.843Z,10.04
2023-01-13T06:25:50.790Z,10.14
2023-01-13T06:28:17.323Z,10.11
2023-01-13T06:30:49.534Z,10.14
2023-01-13T06:33:23.862Z,10.12
2023-01-13T06:36:00.342Z,10.05
2023-01-13T06:38:30.155Z,10.06
2023-01-13T06:40:56.749Z,10.05
2023-01-13T06:43:23.291Z,10.08
2023-01-13T06:45:53.022Z,10.11
2023-01-13T06:48:25.960Z,10.05
2023-01-13T06:50:52.533Z,10.06
2023-01-13T06:53:20.042Z,10.16
2023-01-13T06:55:46.908Z,10.16
2023-01-13T06:58:13.442Z,10.19
2023-01-13T07:00:40.035Z,10.27
2023-01-13T07:03:12.668Z,10.27
2023-01-13T07:05:40.169Z,10.20
2023-01-13T07:08:07.550Z,10.17
2023-01-13T07:10:34.501Z,10.26
2023-01-13T07:13:21.024Z,10.22
2023-01-13T07:15:59.222Z,10.24
2023-01-13T07:18:31.423Z,10.14
2023-01-13T07:21:00.446Z,10.12
2023-01-13T07:23:29.074Z,10.17
2023-01-13T07:25:57.146Z,10.16
2023-01-13T07:28:24.910Z,10.13
2023-01-13T07:30:52.093Z,10.16
2023-01-13T07:33:19.197Z,10.18
2023-01-13T07:35:46.721Z,10.14
2023-01-13T07:38:13.264Z,10.22
2023-01-13T07:40:40.578Z,10.17
2023-01-13T07:43:25.733Z,10.07
2023-01-13T07:45:58.862Z,10.02
2023-01-13T07:48:27.079Z,10.01
2023-01-13T07:50:54.221Z,10.03
2023-01-13T07:53:21.461Z,10.13
2023-01-13T07:55:48.357Z,10.16
2023-01-13T07:58:14.846Z,10.17
2023-01-13T08:00:41.378Z,10.22
2023-01-13T08:03:07.976Z,10.22
2023-01-13T08:05:35.486Z,10.24
2023-01-13T08:08:02.239Z,10.21
2023-01-13T08:10:28.815Z,10.26
2023-01-13T08:13:13.635Z,10.30
2023-01-13T08:15:40.126Z,10.33
2023-01-13T08:18:06.638Z,10.35
2023-01-13T08:20:33.147Z,10.29
2023-01-13T08:23:00.527Z,10.27
2023-01-13T08:25:28.860Z,10.15
2023-01-13T08:27:56.633Z,10.14
2023-01-13T08:30:23.350Z,10.07
2023-01-13T08:32:50.864Z,10.01
2023-01-13T08:35:18.261Z,10.00
2023-01-13T08:37:45.875Z,10.01
2023-01-13T08:40:14.304Z,9.98
2023-01-13T08:42:41.042Z,10.03
2023-01-13T08:45:08.679Z,10.06
2023-01-13T08:47:35.526Z,10.04
2023-01-13T08:50:02.189Z,10.05
2023-01-13T08:52:30.213Z,10.05
2023-01-13T08:54:56.986Z,10.07
2023-01-13T08:57:23.531Z,10.18
2023-01-13T08:59:50.110Z,10.26
2023-01-13T09:02:20.019Z,10.39
2023-01-13T09:04:47.156Z,10.35
2023-01-13T09:07:13.873Z,10.31
2023-01-13T09:09:40.446Z,10.22
2023-01-13T09:12:29.308Z,10.17
2023-01-13T09:14:56.012Z,10.13
2023-01-13T09:17:23.253Z,10.13
2023-01-13T09:19:50.219Z,10.13
2023-01-13T09:22:19.188Z,10.04
2023-01-13T09:24:46.729Z,10.04
2023-01-13T09:27:15.212Z,10.08
2023-01-13T09:29:41.757Z,10.14
2023-01-13T09:32:12.443Z,10.13
2023-01-13T09:34:57.685Z,10.03
2023-01-13T09:37:24.217Z,9.91
2023-01-13T09:39:50.793Z,9.82
2023-01-13T09:43:04.625Z,9.92
2023-01-13T09:45:43.541Z,9.74
2023-01-13T09:48:10.005Z,9.95
2023-01-13T09:50:48.841Z,9.97
2023-01-13T09:53:25.668Z,10.00
2023-01-13T09:55:53.004Z,10.04
2023-01-13T09:58:19.875Z,9.97
2023-01-13T10:00:59.040Z,9.86
2023-01-13T10:03:30.678Z,9.76
2023-01-13T10:06:12.853Z,9.72
2023-01-13T10:08:41.943Z,9.71
2023-01-13T10:11:39.048Z,9.76
2023-01-13T10:14:39.888Z,9.80
2023-01-13T10:17:42.968Z,9.87
2023-01-13T10:20:22.524Z,9.88
2023-01-13T10:23:10.408Z,9.98
2023-01-13T10:25:55.778Z,10.01
2023-01-13T10:28:24.024Z,10.10
2023-01-13T10:30:50.973Z,10.27
2023-01-13T10:33:27.672Z,10.40
2023-01-13T10:35:57.343Z,10.55
2023-01-13T10:38:27.130Z,10.78
2023-01-13T10:40:59.799Z,11.83
2023-01-13T10:43:28.153Z,12.68
2023-01-13T10:46:06.814Z,13.49
2023-01-13T10:48:36.270Z,14.32
2023-01-13T10:51:23.813Z,14.81
2023-01-13T10:54:15.630Z,15.82
2023-01-13T10:56:45.359Z,16.12
2023-01-13T10:59:30.077Z,15.50
2023-01-13T11:02:16.291Z,14.82
2023-01-13T11:04:53.281Z,13.84
2023-01-13T11:07:28.761Z,13.19
2023-01-13T11:10:23.497Z,12.93
2023-01-13T11:13:09.088Z,12.55
2023-01-13T11:15:44.663Z,12.46
2023-01-13T11:18:24.852Z,12.29
2023-01-13T11:20:52.972Z,12.16
2023-01-13T11:23:34.265Z,12.06
2023-01-13T11:26:26.519Z,11.84
2023-01-13T11:29:04.462Z,11.72
2023-01-13T11:31:39.768Z,11.63
2023-01-13T11:34:31.089Z,11.66
2023-01-13T11:37:00.685Z,11.53
2023-01-13T11:39:49.705Z,11.33
2023-01-13T11:42:25.768Z,11.15
2023-01-13T11:45:14.657Z,11.11
2023-01-13T11:47:41.140Z,11.12
2023-01-13T11:50:34.547Z,11.20
2023-01-13T11:53:30.472Z,11.34
2023-01-13T11:56:35.409Z,11.62
2023-01-13T11:59:10.549Z,11.72
2023-01-13T12:02:14.038Z,11.47
2023-01-13T12:05:18.073Z,11.61
2023-01-13T12:07:59.898Z,11.67
2023-01-13T12:11:04.052Z,11.58
2023-01-13T12:13:39.626Z,11.57
2023-01-13T12:16:27.637Z,11.54
2023-01-13T12:19:15.108Z,11.48
2023-01-13T12:21:56.881Z,11.41
2023-01-13T12:24:29.984Z,11.45
2023-01-13T12:27:05.201Z,11.46
2023-01-13T12:29:35.820Z,11.49
2023-01-13T12:32:05.530Z,11.52
2023-01-13T12:34:54.445Z,11.57
2023-01-13T12:37:26.997Z,11.26
2023-01-13T12:39:56.595Z,11.32
2023-01-13T12:43:36.149Z,11.49
2023-01-13T12:46:23.949Z,11.53
2023-01-13T12:48:58.099Z,11.22
2023-01-13T12:51:28.666Z,11.19
2023-01-13T12:53:56.534Z,11.14
2023-01-13T12:56:44.846Z,11.24
2023-01-13T12:59:32.545Z,11.31
2023-01-13T13:02:11.016Z,11.64
2023-01-13T13:04:51.263Z,11.94
2023-01-13T13:07:26.722Z,11.95
2023-01-13T13:09:59.807Z,12.13
2023-01-13T13:13:11.883Z,12.85
2023-01-13T13:15:38.945Z,13.19
2023-01-13T13:18:06.190Z,13.08
2023-01-13T13:20:57.665Z,12.56
2023-01-13T13:23:53.144Z,12.26
2023-01-13T13:26:23.910Z,12.15
2023-01-13T13:28:56.159Z,12.09
2023-01-13T13:31:51.654Z,12.03
2023-01-13T13:34:26.919Z,11.87
2023-01-13T13:37:29.868Z,12.51
2023-01-13T13:40:15.595Z,12.52
2023-01-13T13:43:03.562Z,12.54
2023-01-13T13:45:49.770Z,12.26
2023-01-13T13:48:30.709Z,12.07
2023-01-13T13:51:04.155Z,12.55
2023-01-13T13:53:34.441Z,12.40
2023-01-13T13:56:03.104Z,12.15
2023-01-13T13:58:34.030Z,11.92
2023-01-13T14:01:00.909Z,11.74
2023-01-13T14:03:34.061Z,11.61
2023-01-13T14:06:03.469Z,11.35
2023-01-13T14:08:38.715Z,11.27
2023-01-13T14:11:26.358Z,11.18
2023-01-13T14:14:07.104Z,11.08
2023-01-13T14:16:36.274Z,11.12
2023-01-13T14:19:03.234Z,11.06
2023-01-13T14:21:30.847Z,11.03
2023-01-13T14:24:15.788Z,10.86
2023-01-13T14:26:42.340Z,10.54
2023-01-13T14:29:17.426Z,10.37
2023-01-13T14:31:45.114Z,10.36
2023-01-13T14:34:32.095Z,10.05
2023-01-13T14:37:00.831Z,9.21
2023-01-13T14:39:39.960Z,8.79
2023-01-13T14:42:12.881Z,8.87
2023-01-13T14:44:47.503Z,8.93
2023-01-13T14:47:24.704Z,8.94
2023-01-13T14:50:02.312Z,8.85
2023-01-13T14:52:33.179Z,8.88
2023-01-13T14:55:05.905Z,8.83
2023-01-13T14:57:37.083Z,8.84
2023-01-13T15:00:15.870Z,8.83
2023-01-13T15:02:53.659Z,8.79
2023-01-13T15:05:20.166Z,8.87
2023-01-13T15:07:59.141Z,8.80
2023-01-13T15:10:29.234Z,8.80
2023-01-13T15:12:57.760Z,8.83
2023-01-13T15:15:29.195Z,8.85
2023-01-13T15:17:56.344Z,8.97
2023-01-13T15:20:24.825Z,8.96
2023-01-13T15:22:52.609Z,8.97
2023-01-13T15:25:20.121Z,8.98
2023-01-13T15:27:50.729Z,9.03
2023-01-13T15:30:24.957Z,9.02
2023-01-13T15:32:52.907Z,9.14
2023-01-13T15:35:20.161Z,9.12
2023-01-13T15:37:48.558Z,9.13
2023-01-13T15:40:22.013Z,9.14
2023-01-13T15:43:07.163Z,9.17
2023-01-13T15:45:54.799Z,9.18
2023-01-13T15:48:23.166Z,9.20
2023-01-13T15:50:49.928Z,9.10
2023-01-13T15:53:16.923Z,9.22
2023-01-13T15:55:46.340Z,9.14
2023-01-13T15:58:14.035Z,9.10
2023-01-13T16:00:42.026Z,9.14
2023-01-13T16:03:16.258Z,9.12
2023-01-13T16:05:44.513Z,9.18
2023-01-13T16:08:17.778Z,9.16
2023-01-13T16:10:45.207Z,8.98
2023-01-13T16:13:13.154Z,8.91
2023-01-13T16:15:43.913Z,8.84
2023-01-13T16:18:17.524Z,8.84
2023-01-13T16:20:44.459Z,8.69
2023-01-13T16:23:11.949Z,8.69
2023-01-13T16:25:39.657Z,8.71
2023-01-13T16:28:06.802Z,8.65
2023-01-13T16:30:36.936Z,8.59
2023-01-13T16:33:03.893Z,8.42
2023-01-13T16:35:32.277Z,8.18
2023-01-13T16:37:59.814Z,8.20
2023-01-13T16:40:31.211Z,8.19
2023-01-13T16:42:57.974Z,8.04
2023-01-13T16:45:24.963Z,8.04
2023-01-13T16:47:51.498Z,8.09
2023-01-13T16:50:19.968Z,8.28
2023-01-13T16:52:47.557Z,8.28
2023-01-13T16:55:14.313Z,8.17
2023-01-13T16:57:41.108Z,8.22
2023-01-13T17:00:09.717Z,8.32
2023-01-13T17:02:36.511Z,8.27
2023-01-13T17:05:03.107Z,8.30
2023-01-13T17:07:29.580Z,8.30
2023-01-13T17:09:56.031Z,8.38
2023-01-13T17:12:22.530Z,8.34
2023-01-13T17:14:49.040Z,8.38
2023-01-13T17:17:24.485Z,8.35
2023-01-13T17:19:52.022Z,8.46
2023-01-13T17:22:19.536Z,8.39
2023-01-13T17:24:48.627Z,8.38
2023-01-13T17:27:17.253Z,8.37
2023-01-13T17:29:43.918Z,8.30
2023-01-13T17:32:22.959Z,8.34
2023-01-13T17:34:50.129Z,8.34
2023-01-13T17:37:17.275Z,8.42
2023-01-13T17:39:46.399Z,8.37
2023-01-13T17:42:13.289Z,8.36
2023-01-13T17:44:39.999Z,8.34
2023-01-13T17:47:06.708Z,8.34
2023-01-13T17:49:33.214Z,8.30
2023-01-13T17:51:59.960Z,8.26
2023-01-13T17:54:26.434Z,8.32
2023-01-13T17:56:53.023Z,8.23
2023-01-13T17:59:20.249Z,8.28
2023-01-13T18:01:46.992Z,8.30
2023-01-13T18:04:22.096Z,8.28
2023-01-13T18:06:49.471Z,8.33
2023-01-13T18:09:16.963Z,8.29
2023-01-13T18:11:44.229Z,8.33
2023-01-13T18:14:12.245Z,8.36
2023-01-13T18:16:39.245Z,8.35
2023-01-13T18:19:24.921Z,8.34
2023-01-13T18:22:09.798Z,8.43
2023-01-13T18:24:55.272Z,8.49
2023-01-13T18:27:32.215Z,8.61
2023-01-13T18:30:00.792Z,8.63
2023-01-13T18:32:32.877Z,8.64
2023-01-13T18:35:06.210Z,8.61
2023-01-13T18:37:35.957Z,8.66
2023-01-13T18:40:05.236Z,8.74
2023-01-13T18:42:50.257Z,8.63
2023-01-13T18:45:18.382Z,8.60
2023-01-13T18:47:44.850Z,8.56
2023-01-13T18:50:14.405Z,8.66
2023-01-13T18:52:41.399Z,8.56
2023-01-13T18:55:08.335Z,8.53
2023-01-13T18:57:39.508Z,8.53
2023-01-13T19:00:12.545Z,8.44
2023-01-13T19:02:39.516Z,8.33
2023-01-13T19:05:06.728Z,8.29
2023-01-13T19:07:35.578Z,8.17
2023-01-13T19:10:04.535Z,8.21
2023-01-13T19:12:31.608Z,8.26
2023-01-13T19:14:59.073Z,8.13
2023-01-13T19:17:29.837Z,8.21
2023-01-13T19:19:57.427Z,8.16
2023-01-13T19:22:30.291Z,8.17
2023-01-13T19:24:57.751Z,8.23
2023-01-13T19:27:24.544Z,8.27
2023-01-13T19:29:52.781Z,8.36
2023-01-13T19:32:22.503Z,8.31
2023-01-13T19:34:50.773Z,8.29
2023-01-13T19:37:18.081Z,8.29
2023-01-13T19:39:44.614Z,8.28
2023-01-13T19:42:30.426Z,8.24
2023-01-13T19:45:15.393Z,8.13
2023-01-13T19:47:43.810Z,8.22
2023-01-13T19:50:10.951Z,8.22
2023-01-13T19:52:37.543Z,8.29
2023-01-13T19:55:04.225Z,8.32
2023-01-13T19:57:30.733Z,8.41
2023-01-13T19:59:57.445Z,8.31
2023-01-13T20:02:31.563Z,8.33
2023-01-13T20:05:00.389Z,8.37
2023-01-13T20:07:29.424Z,8.37
2023-01-13T20:09:56.530Z,8.39
2023-01-13T20:12:24.513Z,8.33
2023-01-13T20:14:51.541Z,8.28
2023-01-13T20:17:19.993Z,8.19
2023-01-13T20:19:46.849Z,8.18
2023-01-13T20:22:14.000Z,8.22
2023-01-13T20:24:40.503Z,8.26
2023-01-13T20:27:07.479Z,8.15
2023-01-13T20:29:34.072Z,8.17
2023-01-13T20:32:00.628Z,8.12
2023-01-13T20:34:27.690Z,8.14
2023-01-13T20:36:54.273Z,8.17
2023-01-13T20:39:26.553Z,8.11
2023-01-13T20:42:12.314Z,8.17
2023-01-13T20:44:39.041Z,8.20
2023-01-13T20:47:05.856Z,8.14
2023-01-13T20:49:32.947Z,8.05
2023-01-13T20:51:59.634Z,8.05
2023-01-13T20:54:26.438Z,8.12
2023-01-13T20:56:53.850Z,8.08
2023-01-13T20:59:20.429Z,8.11
2023-01-13T21:01:47.027Z,8.13
2023-01-13T21:04:13.529Z,8.14
2023-01-13T21:06:41.596Z,8.12
2023-01-13T21:09:08.950Z,8.14
2023-01-13T21:11:54.019Z,8.20
2023-01-13T21:14:46.833Z,8.17
2023-01-13T21:17:34.027Z,8.15
2023-01-13T21:20:04.131Z,8.12
2023-01-13T21:22:31.588Z,8.16
2023-01-13T21:24:58.931Z,8.16
2023-01-13T21:27:25.833Z,8.09
2023-01-13T21:29:52.407Z,8.05
2023-01-13T21:32:19.041Z,8.01
2023-01-13T21:34:45.608Z,8.00
2023-01-13T21:37:12.259Z,7.84
2023-01-13T21:39:38.729Z,7.90
2023-01-13T21:42:23.611Z,7.89
2023-01-13T21:45:08.530Z,7.89
2023-01-13T21:47:50.293Z,7.84
2023-01-13T21:50:19.748Z,7.78
2023-01-13T21:52:47.956Z,7.72
2023-01-13T21:55:25.500Z,7.71
2023-01-13T21:58:08.836Z,7.71
2023-01-13T22:00:35.332Z,7.68
2023-01-13T22:03:06.620Z,7.84
2023-01-13T22:05:33.382Z,7.73
2023-01-13T22:07:59.866Z,7.77
2023-01-13T22:10:28.662Z,7.81
2023-01-13T22:12:57.192Z,7.78
2023-01-13T22:15:26.965Z,7.87
2023-01-13T22:17:54.732Z,7.86
2023-01-13T22:20:22.104Z,7.84
2023-01-13T22:22:48.856Z,7.82
2023-01-13T22:25:17.234Z,7.87
2023-01-13T22:27:44.817Z,7.82
2023-01-13T22:30:15.720Z,7.86
2023-01-13T22:32:42.427Z,7.87
2023-01-13T22:35:10.946Z,7.89
2023-01-13T22:37:38.711Z,7.84
2023-01-13T22:40:07.299Z,7.85
2023-01-13T22:42:38.210Z,7.93
2023-01-13T22:45:07.232Z,7.91
2023-01-13T22:47:34.560Z,7.85
2023-01-13T22:50:01.110Z,7.97
2023-01-13T22:52:28.669Z,8.01
2023-01-13T22:54:55.174Z,7.94
2023-01-13T22:57:21.956Z,7.98
2023-01-13T22:59:50.264Z,7.93
2023-01-13T23:02:16.811Z,7.97
2023-01-13T23:04:43.507Z,7.96
2023-01-13T23:07:10.013Z,7.92
2023-01-13T23:09:36.524Z,7.91
2023-01-13T23:12:03.091Z,7.83
2023-01-13T23:14:29.581Z,7.81
2023-01-13T23:16:56.084Z,7.71
2023-01-13T23:19:22.671Z,7.67
2023-01-13T23:21:49.268Z,7.58
2023-01-13T23:24:15.761Z,7.62
2023-01-13T23:26:42.303Z,7.58
2023-01-13T23:29:12.142Z,7.58
2023-01-13T23:31:38.820Z,7.60
2023-01-13T23:34:05.455Z,7.60
2023-01-13T23:36:32.373Z,7.59
2023-01-13T23:38:59.815Z,7.60
2023-01-13T23:41:27.874Z,7.66
2023-01-13T23:43:57.599Z,7.59
2023-01-13T23:46:25.219Z,7.60
2023-01-13T23:48:52.087Z,7.54
2023-01-13T23:51:21.315Z,7.49
2023-01-13T23:53:50.088Z,7.43
2023-01-13T23:56:28.559Z,7.42
2023-01-13T23:58:55.682Z,7.45
